createdAt,value
2018-09-08T00:00:52.803Z,13.70
2018-09-08T00:03:21.184Z,13.70
2018-09-08T00:05:49.516Z,13.70
2018-09-08T00:08:17.804Z,13.80
2018-09-08T00:10:46.057Z,13.70
2018-09-08T00:13:14.495Z,13.70
2018-09-08T00:15:48.313Z,13.70
2018-09-08T00:18:22.075Z,13.70
2018-09-08T00:20:55.652Z,13.70
2018-09-08T00:23:29.461Z,13.70
2018-09-08T00:26:03.137Z,13.70
2018-09-08T00:28:37.556Z,13.70
2018-09-08T00:31:06.294Z,13.70
2018-09-08T00:33:35.765Z,13.70
2018-09-08T00:36:04.072Z,13.70
2018-09-08T00:38:33.233Z,13.60
2018-09-08T00:41:01.446Z,13.60
2018-09-08T00:43:29.815Z,13.60
2018-09-08T00:45:58.239Z,13.60
2018-09-08T00:48:26.452Z,13.60
2018-09-08T00:50:54.715Z,13.60
2018-09-08T00:53:23.098Z,13.60
2018-09-08T00:55:51.403Z,13.60
2018-09-08T00:58:19.695Z,13.60
2018-09-08T01:00:48.034Z,13.60
2018-09-08T01:03:16.572Z,13.70
2018-09-08T01:05:44.896Z,13.70
2018-09-08T01:08:13.201Z,13.70
2018-09-08T01:10:41.516Z,13.70
2018-09-08T01:13:10.205Z,13.60
2018-09-08T01:15:39.172Z,13.60
2018-09-08T01:18:07.635Z,13.60
2018-09-08T01:20:35.894Z,13.60
2018-09-08T01:23:04.291Z,13.60
2018-09-08T01:25:32.538Z,13.50
2018-09-08T01:28:00.786Z,13.50
2018-09-08T01:30:29.123Z,13.50
2018-09-08T01:32:57.635Z,13.50
2018-09-08T01:35:25.884Z,13.50
2018-09-08T01:37:54.112Z,13.50
2018-09-08T01:40:22.428Z,13.50
2018-09-08T01:42:50.873Z,13.40
2018-09-08T01:45:19.123Z,13.40
2018-09-08T01:47:47.350Z,13.40
2018-09-08T01:50:15.692Z,13.40
2018-09-08T01:52:44.015Z,13.40
2018-09-08T01:55:12.325Z,13.50
2018-09-08T01:57:40.590Z,13.40
2018-09-08T02:00:09.713Z,13.40
2018-09-08T02:02:38.521Z,13.40
2018-09-08T02:05:08.072Z,13.50
2018-09-08T02:07:36.634Z,13.50
2018-09-08T02:10:05.071Z,13.50
2018-09-08T02:12:33.370Z,13.50
2018-09-08T02:15:01.661Z,13.50
2018-09-08T02:17:29.925Z,13.50
2018-09-08T02:19:58.152Z,13.50
2018-09-08T02:22:26.422Z,13.50
2018-09-08T02:24:54.696Z,13.60
2018-09-08T02:27:23.140Z,13.60
2018-09-08T02:29:51.465Z,13.60
2018-09-08T02:32:19.740Z,13.60
2018-09-08T02:34:48.757Z,13.60
2018-09-08T02:37:16.983Z,13.60
2018-09-08T02:39:45.289Z,13.60
2018-09-08T02:42:13.592Z,13.60
2018-09-08T02:44:42.144Z,13.60
2018-09-08T02:47:10.370Z,13.50
2018-09-08T02:49:50.052Z,13.50
2018-09-08T02:52:17.324Z,13.50
2018-09-08T02:54:44.634Z,13.50
2018-09-08T02:57:12.077Z,13.50
2018-09-08T02:59:39.327Z,13.50
2018-09-08T03:02:06.703Z,13.40
2018-09-08T03:04:33.978Z,13.40
2018-09-08T03:07:04.681Z,13.40
2018-09-08T03:09:31.988Z,13.40
2018-09-08T03:11:59.245Z,13.40
2018-09-08T03:14:26.629Z,13.40
2018-09-08T03:16:53.842Z,13.40
2018-09-08T03:19:21.116Z,13.30
2018-09-08T03:21:48.343Z,13.40
2018-09-08T03:24:16.643Z,13.30
2018-09-08T03:26:43.909Z,13.30
2018-09-08T03:29:11.172Z,13.30
2018-09-08T03:31:38.518Z,13.30
2018-09-08T03:34:05.878Z,13.30
2018-09-08T03:36:33.175Z,13.20
2018-09-08T03:39:00.437Z,13.20
2018-09-08T03:41:27.717Z,13.20
2018-09-08T03:43:55.072Z,13.20
2018-09-08T03:46:22.400Z,13.20
2018-09-08T03:48:49.843Z,13.20
2018-09-08T03:51:17.161Z,13.20
2018-09-08T03:53:44.553Z,13.10
2018-09-08T03:56:11.816Z,13.20
2018-09-08T03:58:39.149Z,13.10
2018-09-08T04:01:06.436Z,13.10
2018-09-08T04:03:34.831Z,13.10
2018-09-08T04:06:03.098Z,13.10
2018-09-08T04:08:31.395Z,13.00
2018-09-08T04:11:01.137Z,13.00
2018-09-08T04:13:30.586Z,13.00
2018-09-08T04:15:58.805Z,12.90
2018-09-08T04:18:27.098Z,12.90
2018-09-08T04:20:55.390Z,12.90
2018-09-08T04:23:23.630Z,12.90
2018-09-08T04:25:51.911Z,12.90
2018-09-08T04:28:20.556Z,12.90
2018-09-08T04:30:48.854Z,12.90
2018-09-08T04:33:17.221Z,12.90
2018-09-08T04:35:45.510Z,12.80
2018-09-08T04:38:13.833Z,12.80
2018-09-08T04:40:42.152Z,12.80
2018-09-08T04:43:11.522Z,12.80
2018-09-08T04:45:39.779Z,12.80
2018-09-08T04:48:08.074Z,12.80
2018-09-08T04:50:36.619Z,12.80
2018-09-08T04:53:05.190Z,12.80
2018-09-08T04:55:33.466Z,12.80
2018-09-08T04:58:01.814Z,12.70
2018-09-08T05:00:30.172Z,12.70
2018-09-08T05:02:58.521Z,12.70
2018-09-08T05:05:26.842Z,12.70
2018-09-08T05:07:55.172Z,12.70
2018-09-08T05:10:23.527Z,12.70
2018-09-08T05:12:51.893Z,12.70
2018-09-08T05:15:20.173Z,12.70
2018-09-08T05:17:48.459Z,12.80
2018-09-08T05:20:16.785Z,12.80
2018-09-08T05:22:45.164Z,12.70
2018-09-08T05:25:13.475Z,12.80
2018-09-08T05:27:41.717Z,12.80
2018-09-08T05:30:10.123Z,12.80
2018-09-08T05:32:38.518Z,12.80
2018-09-08T05:35:07.449Z,12.90
2018-09-08T05:37:35.660Z,12.90
2018-09-08T05:40:03.922Z,13.00
2018-09-08T05:42:33.593Z,13.00
2018-09-08T05:45:01.905Z,13.10
2018-09-08T05:47:30.183Z,13.10
2018-09-08T05:49:58.504Z,13.20
2018-09-08T05:52:26.853Z,13.20
2018-09-08T05:54:55.194Z,13.20
2018-09-08T05:57:23.447Z,13.30
2018-09-08T05:59:51.726Z,13.30
2018-09-08T06:02:19.948Z,13.30
2018-09-08T06:04:48.331Z,13.40
2018-09-08T06:07:16.648Z,13.40
2018-09-08T06:09:44.924Z,13.40
2018-09-08T06:12:13.185Z,13.40
2018-09-08T06:14:42.620Z,13.50
2018-09-08T06:17:10.911Z,13.50
2018-09-08T06:19:39.202Z,13.50
2018-09-08T06:22:07.519Z,13.60
2018-09-08T06:24:36.018Z,13.60
2018-09-08T06:27:04.260Z,13.60
2018-09-08T06:29:32.591Z,13.60
2018-09-08T06:32:01.669Z,13.60
2018-09-08T06:34:30.038Z,13.70
2018-09-08T06:36:58.392Z,13.70
2018-09-08T06:39:26.696Z,13.70
2018-09-08T06:41:55.022Z,13.70
2018-09-08T06:44:23.516Z,13.70
2018-09-08T06:46:51.878Z,13.80
2018-09-08T06:49:20.199Z,13.80
2018-09-08T06:51:48.664Z,13.80
2018-09-08T06:54:17.067Z,13.80
2018-09-08T06:56:45.420Z,13.90
2018-09-08T06:59:13.812Z,14.00
2018-09-08T07:01:42.197Z,14.00
2018-09-08T07:04:10.660Z,14.10
2018-09-08T07:06:38.969Z,14.20
2018-09-08T07:09:08.987Z,14.20
2018-09-08T07:11:37.297Z,14.20
2018-09-08T07:14:06.651Z,14.30
2018-09-08T07:16:35.015Z,14.30
2018-09-08T07:19:03.575Z,14.30
2018-09-08T07:21:31.809Z,14.30
2018-09-08T07:24:00.295Z,14.40
2018-09-08T07:26:28.641Z,14.50
2018-09-08T07:28:57.076Z,14.50
2018-09-08T07:31:25.515Z,14.60
2018-09-08T07:33:54.173Z,14.70
2018-09-08T07:36:22.657Z,14.70
2018-09-08T07:38:51.068Z,14.70
2018-09-08T07:41:19.477Z,14.80
2018-09-08T07:43:49.577Z,14.90
2018-09-08T07:46:17.940Z,14.90
2018-09-08T07:48:46.239Z,14.90
2018-09-08T07:51:14.532Z,14.90
2018-09-08T07:53:42.983Z,14.90
2018-09-08T07:56:11.187Z,14.90
2018-09-08T07:58:39.506Z,14.80
2018-09-08T08:01:07.791Z,14.80
2018-09-08T08:03:36.282Z,14.80
2018-09-08T08:06:04.634Z,14.80
2018-09-08T08:08:33.000Z,14.80
2018-09-08T08:11:01.367Z,14.90
2018-09-08T08:13:30.008Z,14.90
2018-09-08T08:15:58.465Z,14.90
2018-09-08T08:18:26.810Z,14.90
2018-09-08T08:20:55.208Z,14.80
2018-09-08T08:23:23.717Z,14.90
2018-09-08T08:25:52.003Z,14.90
2018-09-08T08:28:20.297Z,14.90
2018-09-08T08:30:48.644Z,15.00
2018-09-08T08:33:17.104Z,15.10
2018-09-08T08:35:45.497Z,15.10
2018-09-08T08:38:13.903Z,15.20
2018-09-08T08:40:42.253Z,15.20
2018-09-08T08:43:10.642Z,15.20
2018-09-08T08:45:38.905Z,15.30
2018-09-08T08:48:07.340Z,15.30
2018-09-08T08:50:47.354Z,15.40
2018-09-08T08:54:29.303Z,15.50
2018-09-08T08:56:57.596Z,15.50
2018-09-08T08:59:25.934Z,15.60
2018-09-08T09:01:54.296Z,15.60
2018-09-08T09:04:22.702Z,15.60
2018-09-08T09:06:51.060Z,15.60
2018-09-08T09:09:19.394Z,15.70
2018-09-08T09:11:47.984Z,15.70
2018-09-08T09:14:16.211Z,15.70
2018-09-08T09:16:44.562Z,15.70
2018-09-08T09:19:39.506Z,15.70
2018-09-08T09:22:21.248Z,15.70
2018-09-08T09:25:09.663Z,15.70
2018-09-08T09:27:40.248Z,15.70
2018-09-08T09:30:09.194Z,15.80
2018-09-08T09:32:37.627Z,15.90
2018-09-08T09:35:07.487Z,16.10
2018-09-08T09:37:35.891Z,16.10
2018-09-08T09:40:04.653Z,16.10
2018-09-08T09:42:32.947Z,16.10
2018-09-08T09:45:01.206Z,16.10
2018-09-08T09:47:29.597Z,16.10
2018-09-08T09:49:58.010Z,16.10
2018-09-08T09:52:26.387Z,16.00
2018-09-08T09:54:54.733Z,16.00
2018-09-08T09:57:23.108Z,16.00
2018-09-08T09:59:51.443Z,16.00
2018-09-08T10:02:38.961Z,16.00
2018-09-08T10:05:11.915Z,16.10
2018-09-08T10:07:40.246Z,16.10
2018-09-08T10:10:10.315Z,16.20
2018-09-08T10:12:39.138Z,16.20
2018-09-08T10:15:08.334Z,16.30
2018-09-08T10:17:36.981Z,16.40
2018-09-08T10:20:06.628Z,16.50
2018-09-08T10:22:35.051Z,16.50
2018-09-08T10:25:03.439Z,16.60
2018-09-08T10:27:31.773Z,16.60
2018-09-08T10:30:00.546Z,16.70
2018-09-08T10:32:28.467Z,16.70
2018-09-08T10:34:56.913Z,16.70
2018-09-08T10:37:25.115Z,16.70
2018-09-08T10:39:53.471Z,16.70
2018-09-08T10:42:21.863Z,16.60
2018-09-08T10:44:50.198Z,16.50
2018-09-08T10:47:18.522Z,16.50
2018-09-08T10:49:46.848Z,16.40
2018-09-08T10:52:21.748Z,16.30
2018-09-08T10:54:50.051Z,16.30
2018-09-08T10:57:18.918Z,16.30
2018-09-08T10:59:47.279Z,16.30
2018-09-08T11:02:15.991Z,16.30
2018-09-08T11:04:45.215Z,16.40
2018-09-08T11:07:13.507Z,16.50
2018-09-08T11:09:41.793Z,16.60
2018-09-08T11:12:10.131Z,16.70
2018-09-08T11:14:38.622Z,16.80
2018-09-08T11:17:06.927Z,16.90
2018-09-08T11:19:35.205Z,16.90
2018-09-08T11:22:03.448Z,17.00
2018-09-08T11:24:32.243Z,17.10
2018-09-08T11:27:00.512Z,17.20
2018-09-08T11:29:28.787Z,17.20
2018-09-08T11:31:57.066Z,17.20
2018-09-08T11:34:25.528Z,17.20
2018-09-08T11:36:53.912Z,17.30
2018-09-08T11:39:22.308Z,17.30
2018-09-08T11:41:50.777Z,17.30
2018-09-08T11:44:19.366Z,17.40
2018-09-08T11:46:47.658Z,17.40
2018-09-08T11:49:16.057Z,17.60
2018-09-08T11:51:48.538Z,17.70
2018-09-08T11:54:17.187Z,17.70
2018-09-08T11:56:45.934Z,17.70
2018-09-08T11:59:14.458Z,17.70
2018-09-08T12:01:42.824Z,17.80
2018-09-08T12:04:11.253Z,17.80
2018-09-08T12:06:39.565Z,17.80
2018-09-08T12:09:09.498Z,17.60
2018-09-08T12:11:38.044Z,17.60
2018-09-08T12:14:07.873Z,17.50
2018-09-08T12:16:36.134Z,17.50
2018-09-08T12:19:04.474Z,17.50
2018-09-08T12:21:32.740Z,17.50
2018-09-08T12:24:01.120Z,17.60
2018-09-08T12:26:29.478Z,17.60
2018-09-08T12:28:57.801Z,17.70
2018-09-08T12:31:26.128Z,17.80
2018-09-08T12:33:54.429Z,17.80
2018-09-08T12:36:22.717Z,17.80
2018-09-08T12:38:51.098Z,17.90
2018-09-08T12:41:19.547Z,17.90
2018-09-08T12:43:48.191Z,17.80
2018-09-08T12:46:16.754Z,17.80
2018-09-08T12:48:45.297Z,17.80
2018-09-08T12:51:13.654Z,17.80
2018-09-08T12:53:42.084Z,17.80
2018-09-08T12:56:10.517Z,17.80
2018-09-08T12:58:39.052Z,17.90
2018-09-08T13:01:07.487Z,17.90
2018-09-08T13:03:35.772Z,17.90
2018-09-08T13:06:04.135Z,18.00
2018-09-08T13:08:32.498Z,18.00
2018-09-08T13:11:00.871Z,18.00
2018-09-08T13:13:29.284Z,18.00
2018-09-08T13:15:57.575Z,17.90
2018-09-08T13:18:25.968Z,17.70
2018-09-08T13:20:54.180Z,17.60
2018-09-08T13:23:22.649Z,17.60
2018-09-08T13:25:51.155Z,17.60
2018-09-08T13:28:19.416Z,17.70
2018-09-08T13:30:47.680Z,17.60
2018-09-08T13:33:16.169Z,17.60
2018-09-08T13:35:44.485Z,17.60
2018-09-08T13:38:13.143Z,17.60
2018-09-08T13:40:41.623Z,17.60
2018-09-08T13:43:10.148Z,17.60
2018-09-08T13:45:38.469Z,17.70
2018-09-08T13:48:06.851Z,17.70
2018-09-08T13:50:35.214Z,17.60
2018-09-08T13:53:03.632Z,17.60
2018-09-08T13:55:31.871Z,17.50
2018-09-08T13:58:00.160Z,17.50
2018-09-08T14:00:28.457Z,17.50
2018-09-08T14:02:56.979Z,17.60
2018-09-08T14:05:25.251Z,17.50
2018-09-08T14:07:56.011Z,17.60
2018-09-08T14:10:24.260Z,17.60
2018-09-08T14:12:52.666Z,17.50
2018-09-08T14:15:20.976Z,17.50
2018-09-08T14:17:49.232Z,17.40
2018-09-08T14:20:17.616Z,17.40
2018-09-08T14:22:46.008Z,17.40
2018-09-08T14:25:14.402Z,17.40
2018-09-08T14:27:42.692Z,17.50
2018-09-08T14:30:11.037Z,17.50
2018-09-08T14:32:39.561Z,17.60
2018-09-08T14:35:08.045Z,17.70
2018-09-08T14:37:36.352Z,17.70
2018-09-08T14:40:04.769Z,17.70
2018-09-08T14:42:33.023Z,17.70
2018-09-08T14:45:01.306Z,17.70
2018-09-08T14:47:29.672Z,17.70
2018-09-08T14:49:57.947Z,17.70
2018-09-08T14:52:26.229Z,17.60
2018-09-08T14:54:54.512Z,17.60
2018-09-08T14:57:22.807Z,17.50
2018-09-08T14:59:51.094Z,17.50
2018-09-08T15:02:19.403Z,17.50
2018-09-08T15:04:47.848Z,17.50
2018-09-08T15:07:16.199Z,17.40
2018-09-08T15:09:44.513Z,17.40
2018-09-08T15:12:12.900Z,17.30
2018-09-08T15:14:41.400Z,17.30
2018-09-08T15:17:09.794Z,17.30
2018-09-08T15:19:38.154Z,17.30
2018-09-08T15:22:06.589Z,17.30
2018-09-08T15:24:35.240Z,17.30
2018-09-08T15:27:03.607Z,17.20
2018-09-08T15:29:31.985Z,17.20
2018-09-08T15:32:00.310Z,17.10
2018-09-08T15:34:28.866Z,17.10
2018-09-08T15:36:57.225Z,17.10
2018-09-08T15:39:25.555Z,17.20
2018-09-08T15:41:53.851Z,17.20
2018-09-08T15:44:22.315Z,17.30
2018-09-08T15:46:50.675Z,17.20
2018-09-08T15:52:21.477Z,17.20
2018-09-08T15:54:49.800Z,17.20
2018-09-08T15:57:18.111Z,17.30
2018-09-08T15:59:46.432Z,17.40
2018-09-08T16:02:14.896Z,17.50
2018-09-08T16:04:44.497Z,17.60
2018-09-08T16:07:12.812Z,17.50
2018-09-08T16:09:41.115Z,17.50
2018-09-08T16:12:09.468Z,17.50
2018-09-08T16:14:37.950Z,17.40
2018-09-08T16:17:06.381Z,17.30
2018-09-08T16:19:34.773Z,17.30
2018-09-08T16:22:03.276Z,17.30
2018-09-08T16:24:31.791Z,17.20
2018-09-08T16:27:00.118Z,17.20
2018-09-08T16:29:28.518Z,17.20
2018-09-08T16:31:56.893Z,17.20
2018-09-08T16:34:25.327Z,17.20
2018-09-08T16:36:53.661Z,17.10
2018-09-08T16:39:22.062Z,17.20
2018-09-08T16:41:50.408Z,17.20
2018-09-08T16:44:18.879Z,17.20
2018-09-08T16:46:47.153Z,17.20
2018-09-08T16:49:15.439Z,17.20
2018-09-08T16:51:43.769Z,17.20
2018-09-08T16:54:12.058Z,17.20
2018-09-08T16:56:40.375Z,17.20
2018-09-08T16:59:08.746Z,17.20
2018-09-08T17:01:37.150Z,17.20
2018-09-08T17:04:05.698Z,17.10
2018-09-08T17:06:34.045Z,17.10
2018-09-08T17:09:02.351Z,17.10
2018-09-08T17:11:30.627Z,17.10
2018-09-08T17:13:59.233Z,17.10
2018-09-08T17:16:27.571Z,17.10
2018-09-08T17:18:55.922Z,17.10
2018-09-08T17:21:24.310Z,17.10
2018-09-08T17:23:52.690Z,17.00
2018-09-08T17:26:21.019Z,17.00
2018-09-08T17:28:49.763Z,17.00
2018-09-08T17:31:18.187Z,17.00
2018-09-08T17:33:46.642Z,16.90
2018-09-08T17:36:14.917Z,16.90
2018-09-08T17:38:43.251Z,16.80
2018-09-08T17:44:13.515Z,16.80
2018-09-08T17:46:41.849Z,16.80
2018-09-08T17:49:10.626Z,16.80
2018-09-08T17:51:38.914Z,16.90
2018-09-08T17:54:07.387Z,16.80
2018-09-08T17:56:35.970Z,16.90
2018-09-08T17:59:04.384Z,16.90
2018-09-08T18:01:32.707Z,16.90
2018-09-08T18:04:01.110Z,16.80
2018-09-08T18:06:29.418Z,16.80
2018-09-08T18:08:57.701Z,16.80
2018-09-08T18:11:25.951Z,16.80
2018-09-08T18:13:54.457Z,16.70
2018-09-08T18:16:23.183Z,16.70
2018-09-08T18:18:51.519Z,16.60
2018-09-08T18:21:20.910Z,16.70
2018-09-08T18:23:49.331Z,16.60
2018-09-08T18:26:17.812Z,16.60
2018-09-08T18:28:46.152Z,16.50
2018-09-08T18:31:14.574Z,16.50
2018-09-08T18:33:43.402Z,16.50
2018-09-08T18:36:11.759Z,16.40
2018-09-08T18:38:40.118Z,16.40
2018-09-08T18:41:08.431Z,16.40
2018-09-08T18:43:36.799Z,16.40
2018-09-08T18:46:05.168Z,16.40
2018-09-08T18:48:33.488Z,16.40
2018-09-08T18:51:01.854Z,16.30
2018-09-08T18:53:30.126Z,16.30
2018-09-08T18:55:58.695Z,16.30
2018-09-08T18:58:27.055Z,16.30
2018-09-08T19:00:55.405Z,16.30
2018-09-08T19:03:24.542Z,16.30
2018-09-08T19:05:52.904Z,16.30
2018-09-08T19:08:21.248Z,16.30
2018-09-08T19:10:49.613Z,16.30
2018-09-08T19:13:18.001Z,16.30
2018-09-08T19:15:46.333Z,16.30
2018-09-08T19:18:14.731Z,16.20
2018-09-08T19:20:43.171Z,16.20
2018-09-08T19:23:11.729Z,16.20
2018-09-08T19:25:40.181Z,16.20
2018-09-08T19:28:08.498Z,16.20
2018-09-08T19:30:36.892Z,16.20
2018-09-08T19:33:05.466Z,16.20
2018-09-08T19:35:38.428Z,16.20
2018-09-08T19:38:07.096Z,16.20
2018-09-08T19:40:40.809Z,16.20
2018-09-08T19:43:09.191Z,16.10
2018-09-08T19:45:37.680Z,16.10
2018-09-08T19:48:09.564Z,16.10
2018-09-08T19:50:37.937Z,16.10
2018-09-08T19:53:11.657Z,16.10
2018-09-08T19:55:40.315Z,16.10
2018-09-08T19:58:14.941Z,16.00
2018-09-08T20:00:43.567Z,16.00
2018-09-08T20:03:11.993Z,16.00
2018-09-08T20:05:40.257Z,16.00
2018-09-08T20:08:08.706Z,16.00
2018-09-08T20:10:37.157Z,16.00
2018-09-08T20:13:06.645Z,15.90
2018-09-08T20:15:34.970Z,15.90
2018-09-08T20:18:03.430Z,15.90
2018-09-08T20:20:31.781Z,15.90
2018-09-08T20:23:00.670Z,15.80
2018-09-08T20:25:29.469Z,15.80
2018-09-08T20:27:57.831Z,15.80
2018-09-08T20:30:26.421Z,15.80
2018-09-08T20:32:54.963Z,15.80
2018-09-08T20:35:23.292Z,15.80
2018-09-08T20:37:51.560Z,15.80
2018-09-08T20:40:19.902Z,15.80
2018-09-08T20:42:48.866Z,15.80
2018-09-08T20:45:17.410Z,15.80
2018-09-08T20:47:46.656Z,15.80
2018-09-08T20:50:15.021Z,15.70
2018-09-08T20:52:43.553Z,15.70
2018-09-08T20:55:12.067Z,15.70
2018-09-08T20:57:40.395Z,15.70
2018-09-08T21:00:09.027Z,15.60
2018-09-08T21:02:37.456Z,15.60
2018-09-08T21:05:06.053Z,15.50
2018-09-08T21:07:34.465Z,15.50
2018-09-08T21:10:05.726Z,15.40
2018-09-08T21:12:35.119Z,15.40
2018-09-08T21:15:03.526Z,15.40
2018-09-08T21:17:31.924Z,15.40
2018-09-08T21:20:00.432Z,15.40
2018-09-08T21:22:28.917Z,15.30
2018-09-08T21:24:57.284Z,15.30
2018-09-08T21:27:25.631Z,15.30
2018-09-08T21:29:54.282Z,15.30
2018-09-08T21:32:22.628Z,15.30
2018-09-08T21:34:50.931Z,15.20
2018-09-08T21:37:19.473Z,15.20
2018-09-08T21:39:48.138Z,15.20
2018-09-08T21:42:16.437Z,15.20
2018-09-08T21:44:44.836Z,15.10
2018-09-08T21:47:13.215Z,15.10
2018-09-08T21:49:41.633Z,15.10
2018-09-08T21:52:09.998Z,15.10
2018-09-08T21:54:38.438Z,15.10
2018-09-08T21:57:06.914Z,15.10
2018-09-08T21:59:35.269Z,15.00
2018-09-08T22:02:03.827Z,15.00
2018-09-08T22:04:32.564Z,15.00
2018-09-08T22:07:01.039Z,15.00
2018-09-08T22:09:31.466Z,15.00
2018-09-08T22:11:59.978Z,15.00
2018-09-08T22:14:28.825Z,15.00
2018-09-08T22:16:57.332Z,14.90
2018-09-08T22:19:25.650Z,14.90
2018-09-08T22:21:53.941Z,14.90
2018-09-08T22:24:22.659Z,14.90
2018-09-08T22:26:51.047Z,14.90
2018-09-08T22:29:19.482Z,14.90
2018-09-08T22:31:47.788Z,14.90
2018-09-08T22:34:16.203Z,14.90
2018-09-08T22:36:44.487Z,14.90
2018-09-08T22:39:12.780Z,14.90
2018-09-08T22:41:41.135Z,14.90
2018-09-08T22:44:09.449Z,14.90
2018-09-08T22:46:37.762Z,15.00
2018-09-08T22:49:06.597Z,15.00
2018-09-08T22:51:34.955Z,15.00
2018-09-08T22:54:03.314Z,15.00
2018-09-08T22:56:31.609Z,15.00
2018-09-08T22:58:59.988Z,15.00
2018-09-08T23:01:28.282Z,15.00
2018-09-08T23:03:56.740Z,14.90
2018-09-08T23:06:25.254Z,14.90
2018-09-08T23:08:53.573Z,14.90
2018-09-08T23:11:21.926Z,14.90
2018-09-08T23:13:50.453Z,14.90
2018-09-08T23:16:18.892Z,14.90
2018-09-08T23:18:47.414Z,14.90
2018-09-08T23:21:16.122Z,14.90
2018-09-08T23:23:44.539Z,14.90
2018-09-08T23:26:12.932Z,14.90
2018-09-08T23:28:41.240Z,14.90
2018-09-08T23:31:09.512Z,14.90
2018-09-08T23:33:37.934Z,14.90
2018-09-08T23:36:06.356Z,14.90
2018-09-08T23:38:34.764Z,14.80
2018-09-08T23:41:03.125Z,14.80
2018-09-08T23:43:31.678Z,14.90
2018-09-08T23:46:00.090Z,14.90
2018-09-08T23:48:28.419Z,14.90
2018-09-08T23:50:56.833Z,14.90
2018-09-08T23:53:25.312Z,14.80
2018-09-08T23:55:53.695Z,14.80
2018-09-08T23:58:21.972Z,14.70
